עמוד ראשי
METAR-TAF:

METAR-TAF

שדות תעופה :

Puerto Francisco de Orellana, אקוודור

קו רוחב: 00-27-46S, קו אורך: 076-59-12W, גובה: 254מטר

תצפית מזג אוויר נוכחית

הדו"ח נערך לפני 20דקות, בשעה 12:00 UTC
רוח 2קשר מכיוון מערב/צפון-מערב
טמפרטורת 24 צלסיוס
לחות 94%
לחץ 1013 hPa
ראות 10 קילומטר או יותר
עננים בינוניים בגובה 2000רגל
מעונן בגובה 10000רגל

METAR: SECO 121200Z 29002KT 9999 BKN020 OVC100 24/23 Q1013 RMK A2994

זמן: 07:20 (12:20 UTC)


TAF: חסר

תצפיות ותחזיות מזג אוויר לגבי יותר מ- 4,000 שדות תעופה ברחבי העולם. דוחות METAR ו- TAF.

התחנות הזמינות מסומנות בנקודות צהובות ואדומות על גבי המפה.

העבר את העכבר לנקודה הצבעונית על מנת לראות את שם התחנה.

לאחר מכן, לחץ כדי לראות את תוכן ואת תחזיות מזג האוויר.

כדי לשנות את המפה: לחץ על הכפתורים הירוקים עם הפלוס השחור כדי להתקרב; על הכפתור הירוק עם המקף כדי להתרחק; או בחיצים הירוקים למפות סמוכות.


METAR-TAF: